createdAt,value
2022-08-23T00:00:37.920Z,50.25
2022-08-23T00:01:43.569Z,50.36
2022-08-23T00:02:46.682Z,50.38
2022-08-23T00:03:49.873Z,51.13
2022-08-23T00:05:08.643Z,51.07
2022-08-23T00:06:11.941Z,50.60
2022-08-23T00:07:16.713Z,51.05
2022-08-23T00:08:18.714Z,51.10
2022-08-23T00:09:25.189Z,51.23
2022-08-23T00:10:27.162Z,51.06
2022-08-23T00:11:33.736Z,50.54
2022-08-23T00:12:36.277Z,50.61
2022-08-23T00:13:47.453Z,51.09
2022-08-23T00:14:53.451Z,50.97
2022-08-23T00:15:56.506Z,51.18
2022-08-23T00:16:59.924Z,51.12
2022-08-23T00:18:03.417Z,51.01
2022-08-23T00:19:07.741Z,50.79
2022-08-23T00:20:16.320Z,50.65
2022-08-23T00:21:18.665Z,51.23
2022-08-23T00:22:21.827Z,51.17
2022-08-23T00:23:23.987Z,51.13
2022-08-23T00:24:28.737Z,51.36
2022-08-23T00:25:30.802Z,51.04
2022-08-23T00:26:52.871Z,51.28
2022-08-23T00:27:56.118Z,50.99
2022-08-23T00:28:58.117Z,51.18
2022-08-23T00:30:21.313Z,50.85
2022-08-23T00:31:24.230Z,50.92
2022-08-23T00:34:56.411Z,50.96
2022-08-23T00:35:58.428Z,51.28
2022-08-23T00:37:01.469Z,50.71
2022-08-23T00:38:14.625Z,50.98
2022-08-23T00:39:28.688Z,51.34
2022-08-23T00:40:30.659Z,51.27
2022-08-23T00:41:34.719Z,50.85
2022-08-23T00:42:59.466Z,50.97
2022-08-23T00:44:21.452Z,51.57
2022-08-23T00:45:42.949Z,51.03
2022-08-23T00:47:08.434Z,51.34
2022-08-23T00:48:13.275Z,51.57
2022-08-23T00:49:16.664Z,51.45
2022-08-23T00:50:26.590Z,51.66
2022-08-23T00:51:43.115Z,51.44
2022-08-23T00:53:05.856Z,51.37
2022-08-23T00:54:10.868Z,51.17
2022-08-23T00:55:17.299Z,51.61
2022-08-23T00:56:23.313Z,51.76
2022-08-23T00:57:28.652Z,51.38
2022-08-23T00:58:31.074Z,51.26
2022-08-23T00:59:34.389Z,51.38
2022-08-23T01:00:37.588Z,51.32
2022-08-23T01:01:40.085Z,51.04
2022-08-23T01:02:45.879Z,51.45
2022-08-23T01:04:00.831Z,51.31
2022-08-23T01:05:09.772Z,51.65
2022-08-23T01:06:15.556Z,51.73
2022-08-23T01:07:29.268Z,51.49
2022-08-23T01:08:34.611Z,52.10
2022-08-23T01:09:41.745Z,51.95
2022-08-23T01:10:51.706Z,51.94
2022-08-23T01:12:04.734Z,52.04
2022-08-23T01:13:11.731Z,51.91
2022-08-23T01:14:18.915Z,52.01
2022-08-23T01:15:24.739Z,52.05
2022-08-23T01:16:34.673Z,52.14
2022-08-23T01:17:43.820Z,52.00
2022-08-23T01:18:49.212Z,51.87
2022-08-23T01:19:54.794Z,52.10
2022-08-23T01:21:04.112Z,51.51
2022-08-23T01:22:13.654Z,52.09
2022-08-23T01:23:30.752Z,52.12
2022-08-23T01:24:59.912Z,51.92
2022-08-23T01:25:58.396Z,52.15
2022-08-23T01:27:00.713Z,52.20
2022-08-23T01:28:04.945Z,52.05
2022-08-23T01:29:08.035Z,51.99
2022-08-23T01:30:13.855Z,51.68
2022-08-23T01:31:19.183Z,51.69
2022-08-23T01:32:25.867Z,51.97
2022-08-23T01:33:29.746Z,51.55
2022-08-23T01:34:32.380Z,52.33
2022-08-23T01:35:42.491Z,52.29
2022-08-23T01:36:45.789Z,51.77
2022-08-23T01:37:48.846Z,52.49
2022-08-23T01:38:52.537Z,52.29
2022-08-23T01:39:56.385Z,51.76
2022-08-23T01:40:58.944Z,52.38
2022-08-23T01:42:07.682Z,52.35
2022-08-23T01:43:10.772Z,52.03
2022-08-23T01:44:15.350Z,52.27
2022-08-23T01:45:18.787Z,52.49
2022-08-23T01:46:24.993Z,51.96
2022-08-23T01:47:28.151Z,52.28
2022-08-23T01:48:31.229Z,51.78
2022-08-23T01:49:34.053Z,51.98
2022-08-23T01:51:44.981Z,51.88
2022-08-23T01:52:49.624Z,52.10
2022-08-23T01:53:55.868Z,52.18
2022-08-23T01:55:05.751Z,51.84
2022-08-23T01:56:14.488Z,52.25
2022-08-23T01:57:17.181Z,52.04
2022-08-23T01:58:20.462Z,51.88
2022-08-23T01:59:22.789Z,52.02
2022-08-23T02:00:34.007Z,52.12
2022-08-23T02:01:38.057Z,52.11
2022-08-23T02:02:41.155Z,51.66
2022-08-23T02:03:44.694Z,51.78
2022-08-23T02:04:50.524Z,52.41
2022-08-23T02:07:00.991Z,52.66
2022-08-23T02:08:18.560Z,52.23
2022-08-23T02:09:25.677Z,52.30
2022-08-23T02:10:31.728Z,51.93
2022-08-23T02:11:38.518Z,52.21
2022-08-23T02:12:40.617Z,52.35
2022-08-23T02:13:53.354Z,51.77
2022-08-23T02:15:00.435Z,52.06
2022-08-23T02:16:04.968Z,52.56
2022-08-23T02:17:08.176Z,52.31
2022-08-23T02:18:13.507Z,52.15
2022-08-23T02:19:19.139Z,52.28
2022-08-23T02:20:22.403Z,52.09
2022-08-23T02:21:24.743Z,52.48
2022-08-23T02:22:27.758Z,52.29
2022-08-23T02:23:29.928Z,52.20
2022-08-23T02:24:34.853Z,52.26
2022-08-23T02:25:38.652Z,52.14
2022-08-23T02:26:48.782Z,52.15
2022-08-23T02:27:58.734Z,52.81
2022-08-23T02:29:03.475Z,52.41
2022-08-23T02:30:07.418Z,52.52
2022-08-23T02:31:12.110Z,52.81
2022-08-23T02:32:16.215Z,52.80
2022-08-23T02:33:19.471Z,52.62
2022-08-23T02:34:22.635Z,52.33
2022-08-23T02:35:29.489Z,52.59
2022-08-23T02:36:32.741Z,52.19
2022-08-23T02:37:36.460Z,52.45
2022-08-23T02:38:39.548Z,52.13
2022-08-23T02:39:44.757Z,52.90
2022-08-23T02:40:52.990Z,52.60
2022-08-23T02:42:04.659Z,52.41
2022-08-23T02:43:10.779Z,52.55
2022-08-23T02:44:15.318Z,52.15
2022-08-23T02:45:17.945Z,52.21
2022-08-23T02:46:23.805Z,52.55
2022-08-23T02:47:27.224Z,52.78
2022-08-23T02:48:50.655Z,52.17
2022-08-23T02:49:53.648Z,52.57
2022-08-23T02:51:00.499Z,52.44
2022-08-23T02:52:03.126Z,52.94
2022-08-23T02:53:06.172Z,52.89
2022-08-23T02:54:09.498Z,52.61
2022-08-23T02:55:13.955Z,52.91
2022-08-23T02:56:21.129Z,52.73
2022-08-23T02:57:24.462Z,52.41
2022-08-23T02:58:28.553Z,52.24
2022-08-23T02:59:31.644Z,52.45
2022-08-23T03:00:34.247Z,52.94
2022-08-23T03:01:40.255Z,52.70
2022-08-23T03:02:56.037Z,52.47
2022-08-23T03:04:28.506Z,52.44
2022-08-23T03:05:31.304Z,52.54
2022-08-23T03:06:34.952Z,52.53
2022-08-23T03:07:37.076Z,52.67
2022-08-23T03:08:40.230Z,52.67
2022-08-23T03:09:42.331Z,52.83
2022-08-23T03:10:48.981Z,52.55
2022-08-23T03:11:51.191Z,53.32
2022-08-23T03:12:56.656Z,53.04
2022-08-23T03:13:58.660Z,52.90
2022-08-23T03:15:01.768Z,52.79
2022-08-23T03:16:04.058Z,52.76
2022-08-23T03:17:08.274Z,52.53
2022-08-23T03:18:12.892Z,53.06
2022-08-23T03:19:16.633Z,53.10
2022-08-23T03:20:18.651Z,53.05
2022-08-23T03:21:23.698Z,53.40
2022-08-23T03:22:27.235Z,52.64
2022-08-23T03:23:31.904Z,53.02
2022-08-23T03:24:33.975Z,52.88
2022-08-23T03:25:37.802Z,52.92
2022-08-23T03:26:59.059Z,53.27
2022-08-23T03:28:04.506Z,53.08
2022-08-23T03:29:08.532Z,53.24
2022-08-23T03:30:25.879Z,53.08
2022-08-23T03:31:33.997Z,52.96
2022-08-23T03:32:41.735Z,52.90
2022-08-23T03:33:53.145Z,53.18
2022-08-23T03:34:55.356Z,53.10
2022-08-23T03:36:00.946Z,53.56
2022-08-23T03:37:05.725Z,52.89
2022-08-23T03:38:11.054Z,52.77
2022-08-23T03:39:14.435Z,52.88
2022-08-23T03:40:18.281Z,52.75
2022-08-23T03:41:21.983Z,53.20
2022-08-23T03:42:31.099Z,52.94
2022-08-23T03:43:34.496Z,53.01
2022-08-23T03:44:36.764Z,52.99
2022-08-23T03:45:40.060Z,53.06
2022-08-23T03:46:43.196Z,52.89
2022-08-23T03:47:46.411Z,52.87
2022-08-23T03:48:49.249Z,52.78
2022-08-23T03:49:52.250Z,53.18
2022-08-23T03:50:54.942Z,52.75
2022-08-23T03:52:00.368Z,52.78
2022-08-23T03:53:06.392Z,52.84
2022-08-23T03:54:09.687Z,53.10
2022-08-23T03:55:11.882Z,53.31
2022-08-23T03:56:27.091Z,52.86
2022-08-23T03:57:30.909Z,52.88
2022-08-23T03:58:35.631Z,53.04
2022-08-23T03:59:40.698Z,53.49
2022-08-23T04:00:46.158Z,53.18
2022-08-23T04:01:48.654Z,53.06
2022-08-23T04:02:51.964Z,53.01
2022-08-23T04:04:00.096Z,52.99
2022-08-23T04:05:05.983Z,53.27
2022-08-23T04:06:15.575Z,53.09
2022-08-23T04:07:20.622Z,53.26
2022-08-23T04:08:33.648Z,53.27
2022-08-23T04:09:38.985Z,53.23
2022-08-23T04:10:42.587Z,53.25
2022-08-23T04:11:46.672Z,53.25
2022-08-23T04:12:50.058Z,53.05
2022-08-23T04:13:54.307Z,53.13
2022-08-23T04:14:56.346Z,53.16
2022-08-23T04:16:02.942Z,53.09
2022-08-23T04:17:05.135Z,53.07
2022-08-23T04:18:08.021Z,53.23
2022-08-23T04:19:13.996Z,53.35
2022-08-23T04:20:27.702Z,53.12
2022-08-23T04:21:37.035Z,53.28
2022-08-23T04:22:40.517Z,53.34
2022-08-23T04:23:43.382Z,53.38
2022-08-23T04:24:47.410Z,53.16
2022-08-23T04:25:49.335Z,53.07
2022-08-23T04:26:53.743Z,53.50
2022-08-23T04:27:57.186Z,53.39
2022-08-23T04:29:01.114Z,53.37
2022-08-23T04:30:06.745Z,53.34
2022-08-23T04:31:11.699Z,53.04
2022-08-23T04:32:28.179Z,53.55
2022-08-23T04:33:34.613Z,53.08
2022-08-23T04:34:39.926Z,53.31
2022-08-23T04:35:43.289Z,53.16
2022-08-23T04:36:51.811Z,53.45
2022-08-23T04:37:57.583Z,53.65
2022-08-23T04:39:02.209Z,53.19
2022-08-23T04:40:23.799Z,53.45
2022-08-23T04:41:46.343Z,53.72
2022-08-23T04:42:48.722Z,53.23
2022-08-23T04:43:54.283Z,53.24
2022-08-23T04:44:57.597Z,53.63
2022-08-23T04:46:00.644Z,53.48
2022-08-23T04:47:08.867Z,53.62
2022-08-23T04:48:12.372Z,53.49
2022-08-23T04:49:18.288Z,53.85
2022-08-23T04:50:22.322Z,53.75
2022-08-23T04:51:52.952Z,53.55
2022-08-23T04:52:57.616Z,53.57
2022-08-23T04:53:59.814Z,53.50
2022-08-23T04:55:31.915Z,53.49
2022-08-23T04:56:43.513Z,53.74
2022-08-23T04:57:46.433Z,53.59
2022-08-23T04:58:57.497Z,54.11
2022-08-23T05:00:01.907Z,53.91
2022-08-23T05:01:07.881Z,53.37
2022-08-23T05:02:11.211Z,53.81
2022-08-23T05:03:13.476Z,53.94
2022-08-23T05:04:17.017Z,53.66
2022-08-23T05:05:20.891Z,53.31
2022-08-23T05:06:24.351Z,53.45
2022-08-23T05:07:41.936Z,53.51
2022-08-23T05:08:46.507Z,53.01
2022-08-23T05:09:50.375Z,52.88
2022-08-23T05:10:52.997Z,52.97
2022-08-23T05:11:56.224Z,52.78
2022-08-23T05:12:59.922Z,52.98
2022-08-23T05:14:05.553Z,52.73
2022-08-23T05:15:09.929Z,53.04
2022-08-23T05:16:17.180Z,52.99
2022-08-23T05:17:29.771Z,52.61
2022-08-23T05:18:31.905Z,52.80
2022-08-23T05:19:34.951Z,52.02
2022-08-23T05:20:41.640Z,51.81
2022-08-23T05:21:45.576Z,52.34
2022-08-23T05:22:48.190Z,52.41
2022-08-23T05:24:03.813Z,52.00
2022-08-23T05:25:08.068Z,51.92
2022-08-23T05:26:12.320Z,52.03
2022-08-23T05:27:18.087Z,51.80
2022-08-23T05:28:23.232Z,52.09
2022-08-23T05:29:28.521Z,51.71
2022-08-23T05:30:30.529Z,51.76
2022-08-23T05:31:34.627Z,51.55
2022-08-23T05:32:39.463Z,51.92
2022-08-23T05:33:46.249Z,51.85
2022-08-23T05:34:54.700Z,51.30
2022-08-23T05:35:57.799Z,51.21
2022-08-23T05:37:01.602Z,51.09
2022-08-23T05:38:08.979Z,51.60
2022-08-23T05:39:12.534Z,51.37
2022-08-23T05:40:24.155Z,51.54
2022-08-23T05:41:38.339Z,51.05
2022-08-23T05:42:44.260Z,51.69
2022-08-23T05:43:48.167Z,51.51
2022-08-23T05:44:52.740Z,51.64
2022-08-23T05:46:02.363Z,51.39
2022-08-23T05:47:10.671Z,51.16
2022-08-23T05:48:24.524Z,51.15
2022-08-23T05:49:29.960Z,51.20
2022-08-23T05:50:35.683Z,51.48
2022-08-23T05:51:38.861Z,51.30
2022-08-23T05:52:41.925Z,51.11
2022-08-23T05:53:45.802Z,50.84
2022-08-23T05:54:49.017Z,50.75
2022-08-23T05:56:14.327Z,50.81
2022-08-23T05:57:18.286Z,51.20
2022-08-23T05:58:20.301Z,51.44
2022-08-23T05:59:23.700Z,51.35
2022-08-23T06:00:37.312Z,51.02
2022-08-23T06:01:45.376Z,51.16
2022-08-23T06:02:51.390Z,50.94
2022-08-23T06:03:56.044Z,51.79
2022-08-23T06:04:58.062Z,51.57
2022-08-23T06:06:02.133Z,51.35
2022-08-23T06:07:06.091Z,51.10
2022-08-23T06:08:10.023Z,50.56
2022-08-23T06:09:16.662Z,51.27
2022-08-23T06:10:21.337Z,50.65
2022-08-23T06:11:31.792Z,50.69
2022-08-23T06:12:33.891Z,51.36
2022-08-23T06:13:41.491Z,51.17
2022-08-23T06:14:43.775Z,51.56
2022-08-23T06:15:49.259Z,51.08
2022-08-23T06:16:55.871Z,52.14
2022-08-23T06:18:02.738Z,51.08
2022-08-23T06:19:06.782Z,51.19
2022-08-23T06:20:25.035Z,52.43
2022-08-23T06:21:40.256Z,51.83
2022-08-23T06:22:42.272Z,51.80
2022-08-23T06:23:46.542Z,51.99
2022-08-23T06:24:48.811Z,51.69
2022-08-23T06:25:52.509Z,52.49
2022-08-23T06:26:57.636Z,51.93
2022-08-23T06:27:59.805Z,52.18
2022-08-23T06:29:08.221Z,51.90
2022-08-23T06:30:13.186Z,52.56
2022-08-23T06:31:39.519Z,51.80
2022-08-23T06:32:46.590Z,52.50
2022-08-23T06:34:33.560Z,52.02
2022-08-23T06:36:06.223Z,51.90
2022-08-23T06:37:27.987Z,51.85
2022-08-23T06:38:56.154Z,52.54
2022-08-23T06:40:18.109Z,52.21
2022-08-23T06:41:23.607Z,52.19
2022-08-23T06:42:38.948Z,51.74
2022-08-23T06:43:43.508Z,52.74
2022-08-23T06:44:55.759Z,51.88
2022-08-23T06:46:14.698Z,52.76
2022-08-23T06:47:23.010Z,52.24
2022-08-23T06:48:25.835Z,52.84
2022-08-23T06:49:29.993Z,51.89
2022-08-23T06:50:32.702Z,52.74
2022-08-23T06:51:56.223Z,52.24
2022-08-23T06:53:19.354Z,52.63
2022-08-23T06:54:38.123Z,53.46
2022-08-23T06:56:04.251Z,52.30
2022-08-23T06:57:20.693Z,52.16
2022-08-23T06:58:44.063Z,52.53
2022-08-23T07:00:04.478Z,52.08
2022-08-23T07:01:45.699Z,52.03
2022-08-23T07:03:04.765Z,52.30
2022-08-23T07:04:27.193Z,52.31
2022-08-23T07:05:56.584Z,52.53
2022-08-23T07:07:11.170Z,52.86
2022-08-23T07:08:13.914Z,51.82
2022-08-23T07:09:18.655Z,52.30
2022-08-23T07:10:21.739Z,51.93
2022-08-23T07:11:26.747Z,52.87
2022-08-23T07:12:30.403Z,53.37
2022-08-23T07:13:32.370Z,52.90
2022-08-23T07:14:35.625Z,53.28
2022-08-23T07:15:37.770Z,53.71
2022-08-23T07:16:45.975Z,53.00
2022-08-23T07:17:48.246Z,53.56
2022-08-23T07:18:53.001Z,54.06
2022-08-23T07:19:55.202Z,53.66
2022-08-23T07:20:59.929Z,53.42
2022-08-23T07:22:04.184Z,53.58
2022-08-23T07:23:07.162Z,55.17
2022-08-23T07:24:09.701Z,54.88
2022-08-23T07:25:12.750Z,54.76
2022-08-23T07:26:17.043Z,53.97
2022-08-23T07:27:20.435Z,52.70
2022-08-23T07:28:32.276Z,54.45
2022-08-23T07:29:36.972Z,54.55
2022-08-23T07:30:44.531Z,54.55
2022-08-23T07:31:50.808Z,53.50
2022-08-23T07:32:52.898Z,55.08
2022-08-23T07:34:20.921Z,55.66
2022-08-23T07:35:22.910Z,54.24
2022-08-23T07:36:30.249Z,54.64
2022-08-23T07:37:32.359Z,54.58
2022-08-23T07:38:39.695Z,55.18
2022-08-23T07:39:42.885Z,55.55
2022-08-23T07:40:47.230Z,54.65
2022-08-23T07:41:59.066Z,54.39
2022-08-23T07:43:04.433Z,54.78
2022-08-23T07:44:09.913Z,53.14
2022-08-23T07:45:13.958Z,53.80
2022-08-23T07:46:21.163Z,54.09
2022-08-23T07:47:25.449Z,53.58
2022-08-23T07:48:50.619Z,53.71
2022-08-23T07:49:59.929Z,53.20
2022-08-23T07:51:06.269Z,53.29
2022-08-23T07:52:12.181Z,53.50
2022-08-23T07:53:14.584Z,54.58
2022-08-23T07:54:38.028Z,54.31
2022-08-23T07:55:56.474Z,54.87
2022-08-23T07:57:38.119Z,54.09
2022-08-23T07:59:11.360Z,54.42
2022-08-23T08:00:37.625Z,53.52
2022-08-23T08:01:59.245Z,53.57
2022-08-23T08:03:02.050Z,53.93
2022-08-23T08:04:16.897Z,53.06
2022-08-23T08:05:23.134Z,53.44
2022-08-23T08:06:29.632Z,53.50
2022-08-23T08:07:31.821Z,52.81
2022-08-23T08:08:43.184Z,52.99
2022-08-23T08:09:47.202Z,53.54
2022-08-23T08:10:54.351Z,53.20
2022-08-23T08:11:58.045Z,53.99
2022-08-23T08:13:03.767Z,53.10
2022-08-23T08:14:09.329Z,52.97
2022-08-23T08:15:16.070Z,52.98
2022-08-23T08:16:25.474Z,53.43
2022-08-23T08:17:27.871Z,53.62
2022-08-23T08:18:49.504Z,52.86
2022-08-23T08:20:28.189Z,51.68
2022-08-23T08:21:31.773Z,52.04
2022-08-23T08:22:56.421Z,51.19
2022-08-23T08:24:04.575Z,52.19
2022-08-23T08:25:19.058Z,51.86
2022-08-23T08:26:24.915Z,52.46
2022-08-23T08:27:30.384Z,51.69
2022-08-23T08:28:38.758Z,51.62
2022-08-23T08:29:42.159Z,51.69
2022-08-23T08:30:45.370Z,51.34
2022-08-23T08:31:54.087Z,51.08
2022-08-23T08:32:56.669Z,50.78
2022-08-23T08:34:02.089Z,50.51
2022-08-23T08:35:05.302Z,50.44
2022-08-23T08:36:27.997Z,50.75
2022-08-23T08:37:31.134Z,49.62
2022-08-23T08:38:38.855Z,50.35
2022-08-23T08:39:52.133Z,49.95
2022-08-23T08:41:11.038Z,49.73
2022-08-23T08:42:46.442Z,50.43
2022-08-23T08:43:58.721Z,50.46
2022-08-23T08:45:06.609Z,51.62
2022-08-23T08:46:17.326Z,51.60
2022-08-23T08:47:23.411Z,51.13
2022-08-23T08:48:29.714Z,50.36
2022-08-23T08:49:39.917Z,51.01
2022-08-23T08:50:51.148Z,51.16
2022-08-23T08:52:00.995Z,51.17
2022-08-23T08:53:09.509Z,50.74
2022-08-23T08:54:33.125Z,50.58
2022-08-23T08:55:41.168Z,50.25
2022-08-23T08:56:48.669Z,49.05
2022-08-23T08:57:59.974Z,49.23
2022-08-23T08:59:06.545Z,49.77
2022-08-23T09:00:13.810Z,50.11
2022-08-23T09:01:19.255Z,49.89
2022-08-23T09:02:32.593Z,50.25
2022-08-23T09:03:43.146Z,50.82
2022-08-23T09:04:48.908Z,49.99
2022-08-23T09:05:58.579Z,50.04
2022-08-23T09:07:13.951Z,48.67
2022-08-23T09:08:35.533Z,48.80
2022-08-23T09:10:04.967Z,48.81
2022-08-23T09:11:16.506Z,48.28
2022-08-23T09:12:30.997Z,48.98
2022-08-23T09:13:53.726Z,47.77
2022-08-23T09:15:22.580Z,48.02
2022-08-23T09:16:36.817Z,48.69
2022-08-23T09:17:45.025Z,48.50
2022-08-23T09:18:48.106Z,48.92
2022-08-23T09:19:54.279Z,49.29
2022-08-23T09:20:57.880Z,48.37
2022-08-23T09:22:06.503Z,46.32
2022-08-23T09:23:38.331Z,46.85
2022-08-23T09:24:42.109Z,47.30
2022-08-23T09:26:03.529Z,46.69
2022-08-23T09:27:11.840Z,45.53
2022-08-23T09:28:17.624Z,47.16
2022-08-23T09:29:26.318Z,46.15
2022-08-23T09:30:48.332Z,46.92
2022-08-23T09:31:53.956Z,44.83
2022-08-23T09:33:16.792Z,44.70
2022-08-23T09:34:23.076Z,47.44
2022-08-23T09:35:39.041Z,45.20
2022-08-23T09:36:43.880Z,44.58
2022-08-23T09:37:53.079Z,45.63
2022-08-23T09:38:59.579Z,45.58
2022-08-23T09:40:18.513Z,46.09
2022-08-23T09:41:25.146Z,46.03
2022-08-23T09:42:36.462Z,45.53
2022-08-23T09:43:44.675Z,47.67
2022-08-23T09:44:47.788Z,48.14
2022-08-23T09:45:57.296Z,46.20
2022-08-23T09:47:08.071Z,46.19
2022-08-23T09:48:15.382Z,47.28
2022-08-23T09:49:27.212Z,46.57
2022-08-23T09:50:39.278Z,45.34
2022-08-23T09:51:42.881Z,46.25
2022-08-23T09:52:56.250Z,45.64
2022-08-23T09:54:09.191Z,45.51
2022-08-23T09:55:27.223Z,44.50
2022-08-23T09:56:35.103Z,43.25
2022-08-23T09:57:39.666Z,44.47
2022-08-23T09:58:43.587Z,44.49
2022-08-23T09:59:51.685Z,45.37
2022-08-23T10:01:12.012Z,44.71
2022-08-23T10:02:19.424Z,46.89
2022-08-23T10:03:26.056Z,44.50
2022-08-23T10:04:42.529Z,45.25
2022-08-23T10:05:51.357Z,45.24
2022-08-23T10:06:56.020Z,45.06
2022-08-23T10:08:01.617Z,46.11
2022-08-23T10:09:08.147Z,46.55
2022-08-23T10:10:23.274Z,47.40
2022-08-23T10:11:33.050Z,47.56
2022-08-23T10:12:35.241Z,47.22
2022-08-23T10:13:39.826Z,46.96
2022-08-23T10:14:44.753Z,47.73
2022-08-23T10:16:00.440Z,47.41
2022-08-23T10:17:11.033Z,48.15
2022-08-23T10:18:24.862Z,48.12
2022-08-23T10:19:37.355Z,47.70
2022-08-23T10:20:47.659Z,48.27
2022-08-23T10:21:58.538Z,48.74
2022-08-23T10:23:16.237Z,48.18
2022-08-23T10:24:37.119Z,48.10
2022-08-23T10:25:45.482Z,47.91
2022-08-23T10:27:24.368Z,48.24
2022-08-23T10:28:57.297Z,48.00
2022-08-23T10:30:07.599Z,47.83
2022-08-23T10:31:18.702Z,47.80
2022-08-23T10:32:30.622Z,47.82
2022-08-23T10:33:47.504Z,47.82
2022-08-23T10:35:03.238Z,47.60
2022-08-23T10:36:14.379Z,46.62
2022-08-23T10:37:32.505Z,46.33
2022-08-23T10:38:42.851Z,47.12
2022-08-23T10:39:54.051Z,46.85
2022-08-23T10:41:08.439Z,45.97
2022-08-23T10:42:20.032Z,46.34
2022-08-23T10:43:32.255Z,44.94
2022-08-23T10:44:51.926Z,44.96
2022-08-23T10:46:00.684Z,44.56
2022-08-23T10:47:21.738Z,44.62
2022-08-23T10:48:28.896Z,45.77
2022-08-23T10:49:37.283Z,45.45
2022-08-23T10:50:44.371Z,44.71
2022-08-23T10:51:59.247Z,45.08
2022-08-23T10:53:07.562Z,44.78
2022-08-23T10:54:18.788Z,44.35
2022-08-23T10:55:36.896Z,45.30
2022-08-23T10:56:48.520Z,45.53
2022-08-23T10:57:54.879Z,45.44
2022-08-23T10:59:01.394Z,45.25
2022-08-23T11:00:07.096Z,44.51
2022-08-23T11:01:15.768Z,45.17
2022-08-23T11:02:32.560Z,44.60
2022-08-23T11:04:07.007Z,43.92
2022-08-23T11:05:40.599Z,44.47
2022-08-23T11:06:53.852Z,45.08
2022-08-23T11:08:01.137Z,45.12
2022-08-23T11:09:07.673Z,45.08
2022-08-23T11:10:18.104Z,45.32
2022-08-23T11:11:46.478Z,44.18
2022-08-23T11:12:58.590Z,43.83
2022-08-23T11:14:01.465Z,44.62
2022-08-23T11:15:13.759Z,43.92
2022-08-23T11:16:30.212Z,43.62
2022-08-23T11:17:53.756Z,43.63
2022-08-23T11:18:56.760Z,43.33
2022-08-23T11:20:09.868Z,43.04
2022-08-23T11:21:45.892Z,43.71
2022-08-23T11:23:12.278Z,44.29
2022-08-23T11:24:54.323Z,41.92
2022-08-23T11:25:59.923Z,43.02
2022-08-23T11:27:07.272Z,43.65
2022-08-23T11:28:39.817Z,43.88
2022-08-23T11:29:43.854Z,44.54
2022-08-23T11:31:25.039Z,44.98
2022-08-23T11:32:37.962Z,44.02
2022-08-23T11:33:45.806Z,43.53
2022-08-23T11:34:54.874Z,44.18
2022-08-23T11:36:18.485Z,42.52
2022-08-23T11:37:31.174Z,41.81
2022-08-23T11:39:19.640Z,40.35
2022-08-23T11:41:06.185Z,39.88
2022-08-23T11:42:11.140Z,40.62
2022-08-23T11:43:24.934Z,40.39
2022-08-23T11:44:35.387Z,41.89
2022-08-23T11:45:44.830Z,41.23
2022-08-23T11:47:03.982Z,40.39
2022-08-23T11:48:15.399Z,41.62
2022-08-23T11:49:59.010Z,44.34
2022-08-23T11:51:21.954Z,43.28
2022-08-23T11:52:39.395Z,41.99
2022-08-23T11:53:59.783Z,41.82
2022-08-23T11:55:25.004Z,41.98
2022-08-23T11:56:46.449Z,42.89
2022-08-23T11:57:59.097Z,43.21
2022-08-23T11:59:20.397Z,43.48
2022-08-23T12:00:29.357Z,43.78
2022-08-23T12:01:34.865Z,43.55
2022-08-23T12:02:54.137Z,42.90
2022-08-23T12:04:00.022Z,42.58
2022-08-23T12:05:17.996Z,42.64
2022-08-23T12:06:50.954Z,43.33
2022-08-23T12:08:17.390Z,43.79
2022-08-23T12:09:56.271Z,43.49
2022-08-23T12:11:02.917Z,43.28
2022-08-23T12:12:24.476Z,43.28
2022-08-23T12:13:33.641Z,43.71
2022-08-23T12:14:49.672Z,43.91
2022-08-23T12:16:29.052Z,43.56
2022-08-23T12:18:07.467Z,43.76
2022-08-23T12:19:22.213Z,43.37
2022-08-23T12:20:31.098Z,43.60
2022-08-23T12:21:41.977Z,43.11
2022-08-23T12:23:02.166Z,42.12
2022-08-23T12:24:16.307Z,40.74
2022-08-23T12:25:21.910Z,40.74
2022-08-23T12:26:29.231Z,40.78
2022-08-23T12:27:36.672Z,40.29
2022-08-23T12:28:45.286Z,40.95
2022-08-23T12:29:56.886Z,38.73
2022-08-23T12:31:08.145Z,39.30
2022-08-23T12:32:24.510Z,39.66
2022-08-23T12:33:42.373Z,40.68
2022-08-23T12:34:59.355Z,41.93
2022-08-23T12:36:12.468Z,42.54
2022-08-23T12:37:26.625Z,42.75
2022-08-23T12:38:38.918Z,42.83
2022-08-23T12:39:50.038Z,43.09
2022-08-23T12:40:55.297Z,42.76
2022-08-23T12:42:04.784Z,43.11
2022-08-23T12:43:17.491Z,42.81
2022-08-23T12:44:30.195Z,42.75
2022-08-23T12:45:39.920Z,42.70
2022-08-23T12:46:45.433Z,41.06
2022-08-23T12:47:59.081Z,41.16
2022-08-23T12:49:01.387Z,41.86
2022-08-23T12:50:10.505Z,42.26
2022-08-23T12:51:12.918Z,42.01
2022-08-23T12:52:15.850Z,40.75
2022-08-23T12:53:33.064Z,41.82
2022-08-23T12:54:38.175Z,41.75
2022-08-23T12:55:43.893Z,39.39
2022-08-23T12:56:48.098Z,38.95
2022-08-23T12:57:55.201Z,38.13
2022-08-23T12:59:03.306Z,38.83
2022-08-23T13:00:19.118Z,40.94
2022-08-23T13:01:29.895Z,41.35
2022-08-23T13:02:35.096Z,41.49
2022-08-23T13:03:41.808Z,41.31
2022-08-23T13:04:43.782Z,41.40
2022-08-23T13:05:52.218Z,41.90
2022-08-23T13:06:58.562Z,41.60
2022-08-23T13:08:04.053Z,41.96
2022-08-23T13:09:14.827Z,42.03
2022-08-23T13:10:18.099Z,41.77
2022-08-23T13:11:22.355Z,42.13
2022-08-23T13:12:27.103Z,42.12
2022-08-23T13:13:30.210Z,42.06
2022-08-23T13:14:37.443Z,42.26
2022-08-23T13:15:44.408Z,42.12
2022-08-23T13:16:47.331Z,42.45
2022-08-23T13:18:01.130Z,41.98
2022-08-23T13:19:17.522Z,42.15
2022-08-23T13:20:24.308Z,41.83
2022-08-23T13:21:29.620Z,41.83
2022-08-23T13:22:58.326Z,39.62
2022-08-23T13:24:22.296Z,40.27
2022-08-23T13:25:37.967Z,41.15
2022-08-23T13:26:42.611Z,39.49
2022-08-23T13:27:54.055Z,39.21
2022-08-23T13:29:12.320Z,39.52
2022-08-23T13:30:22.981Z,40.23
2022-08-23T13:31:25.151Z,39.89
2022-08-23T13:32:33.430Z,40.34
2022-08-23T13:33:37.428Z,40.13
2022-08-23T13:34:48.777Z,41.00
2022-08-23T13:36:13.432Z,40.60
2022-08-23T13:37:21.179Z,40.41
2022-08-23T13:38:27.140Z,40.97
2022-08-23T13:39:30.701Z,41.25
2022-08-23T13:40:53.930Z,41.24
2022-08-23T13:41:55.997Z,40.90
2022-08-23T13:43:02.146Z,38.86
2022-08-23T13:44:07.007Z,38.55
2022-08-23T13:45:15.611Z,38.40
2022-08-23T13:46:22.231Z,39.05
2022-08-23T13:47:29.494Z,39.59
2022-08-23T13:48:34.893Z,40.16
2022-08-23T13:49:37.347Z,39.93
2022-08-23T13:50:41.042Z,40.35
2022-08-23T13:51:45.558Z,40.63
2022-08-23T13:53:13.623Z,39.83
2022-08-23T13:54:14.423Z,38.54
2022-08-23T13:55:16.620Z,39.03
2022-08-23T13:56:21.484Z,39.17
2022-08-23T13:57:25.612Z,39.15
2022-08-23T13:58:33.090Z,39.50
2022-08-23T13:59:39.065Z,40.03
2022-08-23T14:00:45.931Z,40.26
2022-08-23T14:02:01.653Z,39.40
2022-08-23T14:03:05.282Z,39.20
2022-08-23T14:04:07.801Z,39.40
2022-08-23T14:05:11.207Z,39.55
2022-08-23T14:06:13.628Z,39.09
2022-08-23T14:07:16.784Z,38.70
2022-08-23T14:08:19.014Z,38.90
2022-08-23T14:09:22.025Z,38.41
2022-08-23T14:10:25.484Z,36.68
2022-08-23T14:11:28.922Z,36.08
2022-08-23T14:12:35.020Z,36.66
2022-08-23T14:13:37.367Z,37.63
2022-08-23T14:14:41.145Z,37.01
2022-08-23T14:16:33.011Z,37.81
2022-08-23T14:17:10.653Z,37.16
2022-08-23T14:18:15.089Z,37.32
2022-08-23T14:19:54.559Z,38.15
2022-08-23T14:20:46.097Z,36.56
2022-08-23T14:21:48.510Z,36.24
2022-08-23T14:22:51.465Z,35.79
2022-08-23T14:23:53.432Z,35.97
2022-08-23T14:24:56.453Z,36.18
2022-08-23T14:25:59.797Z,36.08
2022-08-23T14:27:04.460Z,36.49
2022-08-23T14:28:06.445Z,35.17
2022-08-23T14:29:09.920Z,34.02
2022-08-23T14:30:26.122Z,34.51
2022-08-23T14:31:31.728Z,35.90
2022-08-23T14:32:38.057Z,34.83
2022-08-23T14:33:40.354Z,35.71
2022-08-23T14:34:43.318Z,36.37
2022-08-23T14:35:45.419Z,37.42
2022-08-23T14:38:13.590Z,35.41
2022-08-23T14:39:16.809Z,35.75
2022-08-23T14:40:20.758Z,36.74
2022-08-23T14:41:26.531Z,35.21
2022-08-23T14:42:31.754Z,34.58
2022-08-23T14:43:33.857Z,35.25
2022-08-23T14:44:36.843Z,34.95
2022-08-23T14:45:39.656Z,35.46
2022-08-23T14:46:42.801Z,35.43
2022-08-23T14:47:45.713Z,35.38
2022-08-23T14:48:48.174Z,35.68
2022-08-23T14:49:53.884Z,35.09
2022-08-23T14:50:56.956Z,35.19
2022-08-23T14:52:00.036Z,36.02
2022-08-23T14:53:03.111Z,36.45
2022-08-23T14:54:09.069Z,37.05
2022-08-23T14:55:13.280Z,36.69
2022-08-23T14:56:21.414Z,37.11